createdAt,value
2023-02-20T00:00:11.957Z,85.6787109375
2023-02-20T00:01:11.819Z,86.0615234375
2023-02-20T00:02:11.725Z,86.28515625
2023-02-20T00:03:11.632Z,86.5126953125
2023-02-20T00:04:11.621Z,86.6845703125
2023-02-20T00:05:16.436Z,86.892578125
2023-02-20T00:06:11.911Z,87.142578125
2023-02-20T00:07:11.701Z,87.1279296875
2023-02-20T00:08:11.600Z,87.2421875
2023-02-20T00:09:11.610Z,87.5166015625
2023-02-20T00:10:11.946Z,87.7880859375
2023-02-20T00:11:11.717Z,87.6611328125
2023-02-20T00:12:11.703Z,87.669921875
2023-02-20T00:13:11.679Z,87.7666015625
2023-02-20T00:14:11.956Z,87.8642578125
2023-02-20T00:15:11.956Z,87.9931640625
2023-02-20T00:16:14.354Z,88.0380859375
2023-02-20T00:17:11.734Z,88.0205078125
2023-02-20T00:18:11.725Z,88.0654296875
2023-02-20T00:19:11.642Z,87.943359375
2023-02-20T00:20:11.952Z,88.0712890625
2023-02-20T00:21:11.619Z,88.3251953125
2023-02-20T00:22:11.636Z,88.349609375
2023-02-20T00:23:11.740Z,88.1962890625
2023-02-20T00:24:11.674Z,88.2275390625
2023-02-20T00:25:11.988Z,88.375
2023-02-20T00:26:12.133Z,88.7646484375
2023-02-20T00:27:14.074Z,88.806640625
2023-02-20T00:28:11.689Z,89.130859375
2023-02-20T00:29:11.968Z,89.40625
2023-02-20T00:30:12.030Z,89.4248046875
2023-02-20T00:31:11.866Z,89.5087890625
2023-02-20T00:32:11.617Z,89.462890625
2023-02-20T00:33:11.737Z,89.794921875
2023-02-20T00:34:11.699Z,90.10546875
2023-02-20T00:35:11.998Z,90.248046875
2023-02-20T00:36:11.953Z,90.501953125
2023-02-20T00:37:11.688Z,90.791015625
2023-02-20T00:38:14.035Z,91.130859375
2023-02-20T00:39:11.637Z,91.259765625
2023-02-20T00:40:11.960Z,91.4755859375
2023-02-20T00:41:11.713Z,91.5302734375
2023-02-20T00:42:11.725Z,91.7958984375
2023-02-20T00:43:11.757Z,91.8837890625
2023-02-20T00:44:11.989Z,92
2023-02-20T00:45:11.963Z,92.154296875
2023-02-20T00:46:11.969Z,92.318359375
2023-02-20T00:47:11.732Z,92.3291015625
2023-02-20T00:48:11.726Z,92.4658203125
2023-02-20T00:49:13.946Z,92.4326171875
2023-02-20T00:50:12.048Z,92.3642578125
2023-02-20T00:51:11.644Z,92.4599609375
2023-02-20T00:52:12.515Z,92.755859375
2023-02-20T00:53:11.708Z,92.7978515625
2023-02-20T00:54:11.618Z,92.8291015625
2023-02-20T00:55:11.956Z,93.0087890625
2023-02-20T00:56:11.929Z,93.1357421875
2023-02-20T00:57:11.728Z,93.3505859375
2023-02-20T00:58:11.726Z,93.5966796875
2023-02-20T00:59:11.964Z,93.79296875
2023-02-20T01:00:16.434Z,94.1220703125
2023-02-20T01:01:11.697Z,94.369140625
2023-02-20T01:02:11.610Z,94.423828125
2023-02-20T01:03:11.718Z,94.26953125
2023-02-20T01:04:11.621Z,94.2529296875
2023-02-20T01:05:11.963Z,94.3701171875
2023-02-20T01:06:11.912Z,94.6787109375
2023-02-20T01:07:11.746Z,94.802734375
2023-02-20T01:08:11.754Z,94.921875
2023-02-20T01:09:11.618Z,94.75390625
2023-02-20T01:10:11.956Z,94.8642578125
2023-02-20T01:11:14.078Z,95.126953125
2023-02-20T01:12:11.718Z,95.3544921875
2023-02-20T01:13:11.612Z,95.365234375
2023-02-20T01:14:11.961Z,95.576171875
2023-02-20T01:15:11.970Z,95.8388671875
2023-02-20T01:16:12.105Z,96.0244140625
2023-02-20T01:17:11.702Z,96.306640625
2023-02-20T01:18:11.614Z,96.5185546875
2023-02-20T01:19:11.621Z,96.4833984375
2023-02-20T01:20:12.551Z,96.5615234375
2023-02-20T01:21:11.708Z,96.900390625
2023-02-20T01:22:13.997Z,97.158203125
2023-02-20T01:23:11.695Z,97.0986328125
2023-02-20T01:24:11.660Z,97.205078125
2023-02-20T01:25:11.957Z,97.4697265625
2023-02-20T01:26:12.077Z,97.568359375
2023-02-20T01:27:11.622Z,97.69140625
2023-02-20T01:28:11.654Z,97.6142578125
2023-02-20T01:29:11.968Z,97.583984375
2023-02-20T01:30:11.979Z,97.7607421875
2023-02-20T01:31:11.812Z,97.1494140625
2023-02-20T01:32:11.776Z,96.02734375
2023-02-20T01:33:14.042Z,95.3056640625
2023-02-20T01:34:11.731Z,95.22265625
2023-02-20T01:35:11.962Z,95.158203125
2023-02-20T01:36:11.951Z,95.16796875
2023-02-20T01:37:11.622Z,95.25390625
2023-02-20T01:38:11.712Z,95.1435546875
2023-02-20T01:39:11.667Z,95.0771484375
2023-02-20T01:40:11.958Z,95.126953125
2023-02-20T01:41:11.617Z,95.2392578125
2023-02-20T01:42:11.622Z,95.0732421875
2023-02-20T01:43:11.717Z,95.3701171875
2023-02-20T01:44:16.436Z,95.5244140625
2023-02-20T01:45:11.968Z,95.671875
2023-02-20T01:46:11.944Z,95.7138671875
2023-02-20T01:47:11.639Z,95.611328125
2023-02-20T01:48:11.680Z,95.6923828125
2023-02-20T01:49:11.705Z,95.734375
2023-02-20T01:50:12.706Z,95.8017578125
2023-02-20T01:51:11.726Z,96.2587890625
2023-02-20T01:52:11.624Z,95.931640625
2023-02-20T01:53:11.609Z,96.380859375
2023-02-20T01:54:11.684Z,96.4150390625
2023-02-20T01:55:16.388Z,96.4091796875
2023-02-20T01:56:11.988Z,96.3623046875
2023-02-20T01:57:11.727Z,96.2841796875
2023-02-20T01:58:11.707Z,96.857421875
2023-02-20T01:59:11.997Z,96.9033203125
2023-02-20T02:00:11.956Z,96.7529296875
2023-02-20T02:01:11.723Z,96.9892578125
2023-02-20T02:02:11.718Z,96.6611328125
2023-02-20T02:03:11.602Z,96.595703125
2023-02-20T02:04:11.757Z,96.1689453125
2023-02-20T02:05:11.959Z,96.078125
2023-02-20T02:06:14.441Z,95.9345703125
2023-02-20T02:07:11.739Z,95.953125
2023-02-20T02:08:11.706Z,95.9599609375
2023-02-20T02:09:11.670Z,95.5810546875
2023-02-20T02:10:11.959Z,95.728515625
2023-02-20T02:11:11.709Z,95.2861328125
2023-02-20T02:12:11.700Z,94.775390625
2023-02-20T02:13:11.741Z,94.72265625
2023-02-20T02:14:11.959Z,94.28515625
2023-02-20T02:15:11.960Z,93.890625
2023-02-20T02:16:12.067Z,93.6845703125
2023-02-20T02:17:14.048Z,94.01171875
2023-02-20T02:18:11.651Z,93.8076171875
2023-02-20T02:19:11.732Z,93.7041015625
2023-02-20T02:20:12.115Z,93.5732421875
2023-02-20T02:21:11.696Z,93.5419921875
2023-02-20T02:22:11.629Z,93.0478515625
2023-02-20T02:23:11.759Z,92.75390625
2023-02-20T02:24:11.683Z,92.58984375
2023-02-20T02:25:11.957Z,92.564453125
2023-02-20T02:26:12.080Z,92.498046875
2023-02-20T02:27:11.697Z,92.576171875
2023-02-20T02:28:13.977Z,92.189453125
2023-02-20T02:29:11.952Z,92.173828125
2023-02-20T02:30:11.994Z,92.2568359375
2023-02-20T02:31:11.735Z,91.953125
2023-02-20T02:32:11.659Z,92.3544921875
2023-02-20T02:33:11.620Z,92.0400390625
2023-02-20T02:34:11.718Z,92.0859375
2023-02-20T02:35:11.958Z,92.0546875
2023-02-20T02:36:12.014Z,91.5458984375
2023-02-20T02:37:11.712Z,91.580078125
2023-02-20T02:38:11.688Z,91.1953125
2023-02-20T02:39:14.029Z,91.4443359375
2023-02-20T02:40:11.961Z,91.4306640625
2023-02-20T02:41:11.710Z,91.3076171875
2023-02-20T02:42:11.656Z,90.9677734375
2023-02-20T02:43:11.688Z,91.0341796875
2023-02-20T02:44:11.954Z,91.390625
2023-02-20T02:45:11.951Z,91.8583984375
2023-02-20T02:46:11.956Z,92.0791015625
2023-02-20T02:47:11.688Z,92.0478515625
2023-02-20T02:48:11.630Z,92.041015625
2023-02-20T02:49:11.702Z,91.9052734375
2023-02-20T02:50:14.967Z,91.640625
2023-02-20T02:51:11.657Z,91.9033203125
2023-02-20T02:52:11.699Z,92.2294921875
2023-02-20T02:53:11.725Z,92.19140625
2023-02-20T02:54:11.598Z,92.5048828125
2023-02-20T02:55:11.970Z,92.703125
2023-02-20T02:56:11.933Z,92.73828125
2023-02-20T02:57:11.723Z,92.6630859375
2023-02-20T02:58:11.704Z,92.5048828125
2023-02-20T02:59:11.946Z,92.7802734375
2023-02-20T03:00:11.967Z,92.8515625
2023-02-20T03:01:14.059Z,93.1142578125
2023-02-20T03:02:11.733Z,93.0341796875
2023-02-20T03:03:11.601Z,93.1201171875
2023-02-20T03:04:11.730Z,92.9404296875
2023-02-20T03:05:11.959Z,92.5400390625
2023-02-20T03:06:12.045Z,92.2333984375
2023-02-20T03:07:11.571Z,92.154296875
2023-02-20T03:08:11.661Z,91.8310546875
2023-02-20T03:09:11.681Z,92.2060546875
2023-02-20T03:10:11.967Z,92.0703125
2023-02-20T03:11:11.729Z,92.2060546875
2023-02-20T03:12:14.065Z,92.568359375
2023-02-20T03:13:11.694Z,92.4990234375
2023-02-20T03:14:11.965Z,92.294921875
2023-02-20T03:15:11.961Z,91.974609375
2023-02-20T03:16:11.937Z,91.8427734375
2023-02-20T03:17:11.608Z,91.8759765625
2023-02-20T03:18:11.737Z,91.7265625
2023-02-20T03:19:11.667Z,92.0380859375
2023-02-20T03:20:12.715Z,92.36328125
2023-02-20T03:21:11.728Z,91.4052734375
2023-02-20T03:22:11.709Z,92.0625
2023-02-20T03:23:13.977Z,92.064453125
2023-02-20T03:24:11.698Z,91.7705078125
2023-02-20T03:25:11.966Z,91.93359375
2023-02-20T03:26:11.901Z,91.5224609375
2023-02-20T03:27:11.641Z,91.5166015625
2023-02-20T03:28:11.711Z,90.90625
2023-02-20T03:29:11.972Z,91.3310546875
2023-02-20T03:30:12.056Z,91.1220703125
2023-02-20T03:31:11.660Z,91.3017578125
2023-02-20T03:32:11.705Z,91.48046875
2023-02-20T03:33:11.720Z,91.259765625
2023-02-20T03:34:14.050Z,91.412109375
2023-02-20T03:35:11.968Z,91.3828125
2023-02-20T03:36:12.118Z,91.1845703125
2023-02-20T03:37:11.671Z,91.1767578125
2023-02-20T03:38:11.682Z,91.4580078125
2023-02-20T03:39:11.741Z,91.02734375
2023-02-20T03:40:11.994Z,91.212890625
2023-02-20T03:41:11.676Z,91.2666015625
2023-02-20T03:42:11.716Z,91.693359375
2023-02-20T03:43:11.732Z,91.984375
2023-02-20T03:44:11.976Z,92.189453125
2023-02-20T03:45:16.480Z,92.0283203125
2023-02-20T03:46:12.217Z,91.802734375
2023-02-20T03:47:11.725Z,92.0517578125
2023-02-20T03:48:11.741Z,92.2666015625
2023-02-20T03:49:11.748Z,93.3017578125
2023-02-20T03:50:12.547Z,93.4619140625
2023-02-20T03:51:11.638Z,93.701171875
2023-02-20T03:52:11.719Z,93.5576171875
2023-02-20T03:53:11.747Z,94.255859375
2023-02-20T03:54:11.634Z,94.5439453125
2023-02-20T03:55:11.982Z,94.685546875
2023-02-20T03:57:51.522Z,95.33203125
2023-02-20T03:58:51.825Z,95.4013671875
2023-02-20T03:59:51.477Z,95.533203125
2023-02-20T04:00:51.833Z,95.966796875
2023-02-20T04:01:51.626Z,95.9228515625
2023-02-20T04:02:53.952Z,95.8505859375
2023-02-20T04:03:51.577Z,96.0107421875
2023-02-20T04:04:51.483Z,96.0224609375
2023-02-20T04:05:51.809Z,95.8701171875
2023-02-20T04:06:51.558Z,95.8466796875
2023-02-20T04:07:51.537Z,95.7978515625
2023-02-20T04:08:51.587Z,95.43359375
2023-02-20T04:09:51.588Z,95.2529296875
2023-02-20T04:10:51.809Z,94.8173828125
2023-02-20T04:11:51.603Z,94.4453125
2023-02-20T04:12:51.467Z,94.4345703125
2023-02-20T04:13:56.427Z,94.212890625
2023-02-20T04:14:51.524Z,94.021484375
2023-02-20T04:15:51.808Z,93.77734375
2023-02-20T04:16:51.575Z,94.2421875
2023-02-20T04:17:51.546Z,94.236328125
2023-02-20T04:18:51.520Z,94.3349609375
2023-02-20T04:19:51.568Z,94.72265625
2023-02-20T04:20:51.550Z,94.7255859375
2023-02-20T04:21:51.539Z,95.1181640625
2023-02-20T04:22:51.540Z,95.4091796875
2023-02-20T04:23:51.478Z,95.537109375
2023-02-20T04:24:53.816Z,95.552734375
2023-02-20T04:25:51.916Z,95.8896484375
2023-02-20T04:26:51.567Z,95.9501953125
2023-02-20T04:27:51.464Z,95.9833984375
2023-02-20T04:28:51.825Z,96.05078125
2023-02-20T04:29:51.519Z,96.236328125
2023-02-20T04:30:51.853Z,96.2255859375
2023-02-20T04:31:51.500Z,96.4267578125
2023-02-20T04:32:51.448Z,96.6376953125
2023-02-20T04:33:51.524Z,96.87890625
2023-02-20T04:34:51.483Z,96.828125
2023-02-20T04:35:54.213Z,96.4833984375
2023-02-20T04:36:51.510Z,96.4599609375
2023-02-20T04:37:51.556Z,96.4052734375
2023-02-20T04:38:51.444Z,96.31640625
2023-02-20T04:39:51.558Z,96.30859375
2023-02-20T04:40:51.802Z,96.3974609375
2023-02-20T04:41:51.567Z,97.103515625
2023-02-20T04:42:51.551Z,97.078125
2023-02-20T04:43:51.801Z,97.119140625
2023-02-20T04:44:51.637Z,97.2509765625
2023-02-20T04:45:51.865Z,97.234375
2023-02-20T04:46:53.892Z,97.3154296875
2023-02-20T04:47:51.546Z,97.4560546875
2023-02-20T04:48:51.572Z,97.5126953125
2023-02-20T04:49:51.517Z,97.4951171875
2023-02-20T04:50:51.799Z,97.412109375
2023-02-20T04:51:51.436Z,97.642578125
2023-02-20T04:52:51.510Z,97.7900390625
2023-02-20T04:53:51.532Z,98.060546875
2023-02-20T04:54:51.526Z,98.072265625
2023-02-20T04:55:51.795Z,98.49609375
2023-02-20T04:56:51.552Z,98.720703125
2023-02-20T04:57:53.783Z,98.6806640625
2023-02-20T04:58:51.800Z,99.3369140625
2023-02-20T04:59:51.576Z,99.4404296875
2023-02-20T05:00:51.794Z,99.4599609375
2023-02-20T05:01:51.439Z,99.78125
2023-02-20T05:02:51.565Z,99.9541015625
2023-02-20T05:03:51.498Z,100
2023-02-20T05:04:51.594Z,100
2023-02-20T05:05:51.815Z,100
2023-02-20T05:06:51.581Z,100
2023-02-20T05:07:51.521Z,100
2023-02-20T05:08:53.862Z,100
2023-02-20T05:09:51.575Z,100
2023-02-20T05:10:51.796Z,100
2023-02-20T05:11:51.555Z,100
2023-02-20T05:12:51.547Z,100
2023-02-20T05:13:51.805Z,100
2023-02-20T05:14:51.463Z,100
2023-02-20T05:15:51.839Z,100
2023-02-20T05:16:51.453Z,100
2023-02-20T05:17:51.501Z,100
2023-02-20T05:18:51.453Z,100
2023-02-20T05:19:53.898Z,100
2023-02-20T05:20:51.790Z,100
2023-02-20T05:21:51.588Z,100
2023-02-20T05:22:51.460Z,100
2023-02-20T05:23:51.597Z,100
2023-02-20T05:24:51.542Z,100
2023-02-20T05:25:51.807Z,100
2023-02-20T05:26:51.462Z,100
2023-02-20T05:27:51.558Z,100
2023-02-20T05:28:51.839Z,100
2023-02-20T05:29:51.577Z,100
2023-02-20T05:30:56.247Z,100
2023-02-20T05:31:51.682Z,100
2023-02-20T05:32:51.447Z,100
2023-02-20T05:33:51.457Z,100
2023-02-20T05:34:51.576Z,100
2023-02-20T05:35:51.816Z,100
2023-02-20T05:36:51.546Z,100
2023-02-20T05:37:51.534Z,100
2023-02-20T05:38:51.511Z,100
2023-02-20T05:39:51.517Z,100
2023-02-20T05:40:51.821Z,100
2023-02-20T05:41:53.924Z,100
2023-02-20T05:42:51.446Z,100
2023-02-20T05:43:51.536Z,100
2023-02-20T05:44:51.582Z,100
2023-02-20T05:45:51.815Z,100
2023-02-20T05:46:51.518Z,100
2023-02-20T05:47:51.589Z,100
2023-02-20T05:48:51.662Z,100
2023-02-20T05:49:51.660Z,100
2023-02-20T05:50:51.529Z,100
2023-02-20T05:51:51.607Z,100
2023-02-20T05:52:53.791Z,100
2023-02-20T05:53:51.442Z,100
2023-02-20T05:54:51.554Z,100
2023-02-20T05:55:51.808Z,100
2023-02-20T05:56:51.566Z,100
2023-02-20T05:57:51.459Z,100
2023-02-20T05:58:51.802Z,100
2023-02-20T05:59:51.510Z,100
2023-02-20T06:00:51.796Z,100
2023-02-20T06:01:51.449Z,100
2023-02-20T06:02:51.512Z,100
2023-02-20T06:03:53.933Z,100
2023-02-20T06:04:51.539Z,100
2023-02-20T06:05:51.794Z,100
2023-02-20T06:06:51.532Z,100
2023-02-20T06:07:51.702Z,100
2023-02-20T06:08:51.465Z,100
2023-02-20T06:09:51.444Z,100
2023-02-20T06:10:52.048Z,100
2023-02-20T06:11:51.509Z,100
2023-02-20T06:12:51.468Z,100
2023-02-20T06:13:51.807Z,100
2023-02-20T06:14:53.902Z,100
2023-02-20T06:15:51.861Z,100
2023-02-20T06:16:51.705Z,100
2023-02-20T06:17:51.554Z,100
2023-02-20T06:18:51.488Z,100
2023-02-20T06:19:51.555Z,100
2023-02-20T06:20:51.803Z,100
2023-02-20T06:21:51.435Z,100
2023-02-20T06:22:51.520Z,100
2023-02-20T06:23:51.516Z,100
2023-02-20T06:24:51.424Z,100
2023-02-20T06:25:56.321Z,100
2023-02-20T06:26:51.744Z,100
2023-02-20T06:27:51.549Z,100
2023-02-20T06:28:51.808Z,100
2023-02-20T06:29:51.585Z,100
2023-02-20T06:30:51.796Z,100
2023-02-20T06:31:51.738Z,100
2023-02-20T06:32:51.582Z,100
2023-02-20T06:33:51.540Z,100
2023-02-20T06:34:51.534Z,100
2023-02-20T06:35:51.813Z,100
2023-02-20T06:36:53.886Z,100
2023-02-20T06:37:51.517Z,100
2023-02-20T06:38:51.566Z,100
2023-02-20T06:39:51.566Z,100
2023-02-20T06:40:51.927Z,100
2023-02-20T06:41:51.598Z,100
2023-02-20T06:42:51.494Z,100
2023-02-20T06:43:51.810Z,100
2023-02-20T06:44:51.582Z,100
2023-02-20T06:45:51.819Z,100
2023-02-20T06:46:51.582Z,100
2023-02-20T06:47:53.920Z,100
2023-02-20T06:48:51.604Z,100
2023-02-20T06:49:51.472Z,100
2023-02-20T06:50:51.811Z,100
2023-02-20T06:51:51.577Z,100
2023-02-20T06:52:51.528Z,100
2023-02-20T06:53:51.514Z,100
2023-02-20T06:54:51.556Z,100
2023-02-20T06:55:51.810Z,100
2023-02-20T06:56:51.556Z,100
2023-02-20T06:57:51.544Z,100
2023-02-20T06:58:56.328Z,100
2023-02-20T06:59:51.478Z,100
2023-02-20T07:00:51.802Z,100
2023-02-20T07:01:51.539Z,100
2023-02-20T07:02:51.588Z,100
2023-02-20T07:03:51.505Z,100
2023-02-20T07:04:51.488Z,100
2023-02-20T07:05:51.817Z,100
2023-02-20T07:06:51.541Z,100
2023-02-20T07:07:51.534Z,100
2023-02-20T07:08:51.548Z,100
2023-02-20T07:09:53.937Z,100
2023-02-20T07:10:51.819Z,100
2023-02-20T07:11:51.602Z,100
2023-02-20T07:12:51.491Z,100
2023-02-20T07:13:51.813Z,100
2023-02-20T07:14:51.459Z,100
2023-02-20T07:15:51.864Z,100
2023-02-20T07:16:51.527Z,100
2023-02-20T07:17:51.592Z,100
2023-02-20T07:18:51.542Z,100
2023-02-20T07:19:51.587Z,100
2023-02-20T07:20:56.321Z,100
2023-02-20T07:21:51.544Z,100
2023-02-20T07:22:51.585Z,100
2023-02-20T07:23:51.507Z,100
2023-02-20T07:24:51.482Z,100
2023-02-20T07:25:51.812Z,100
2023-02-20T07:26:51.479Z,100
2023-02-20T07:27:51.569Z,100
2023-02-20T07:28:54.161Z,100
2023-02-20T07:29:51.535Z,100
2023-02-20T07:30:51.824Z,100
2023-02-20T07:31:54.050Z,99.7998046875
2023-02-20T07:32:51.493Z,99.3486328125
2023-02-20T07:33:51.528Z,99.6455078125
2023-02-20T07:35:03.716Z,99.0693359375
2023-02-20T07:35:51.829Z,99.1826171875
2023-02-20T07:36:51.593Z,99.3515625
2023-02-20T07:37:51.580Z,99.228515625
2023-02-20T07:38:51.446Z,99.2197265625
2023-02-20T07:39:51.463Z,99.107421875
2023-02-20T07:40:51.812Z,99.2138671875
2023-02-20T07:41:51.440Z,99.125
2023-02-20T07:42:53.893Z,98.3056640625
2023-02-20T07:43:51.813Z,98.1240234375
2023-02-20T07:44:51.569Z,97.7978515625
2023-02-20T07:45:51.832Z,97.572265625
2023-02-20T07:46:51.542Z,97.3525390625
2023-02-20T07:47:51.587Z,96.7578125
2023-02-20T07:48:51.545Z,96.3193359375
2023-02-20T07:49:51.573Z,95.775390625
2023-02-20T07:50:51.807Z,94.982421875
2023-02-20T07:51:51.561Z,94.802734375
2023-02-20T07:52:51.577Z,94.4716796875
2023-02-20T07:53:53.902Z,94.33984375
2023-02-20T07:54:51.575Z,93.83984375
2023-02-20T07:55:51.806Z,93.76171875
2023-02-20T07:56:51.461Z,93.2470703125
2023-02-20T07:57:51.526Z,93.22265625
2023-02-20T07:58:51.803Z,92.6650390625
2023-02-20T07:59:51.458Z,92.1611328125
2023-02-20T08:00:51.802Z,91.4638671875
2023-02-20T08:01:51.536Z,90.6103515625
2023-02-20T08:02:51.557Z,90.4755859375
2023-02-20T08:03:51.450Z,90.068359375
2023-02-20T08:04:53.871Z,89.4287109375
2023-02-20T08:05:52.145Z,89.4140625
2023-02-20T08:06:51.523Z,89.0185546875
2023-02-20T08:07:51.506Z,88.9580078125
2023-02-20T08:08:51.511Z,89.001953125
2023-02-20T08:09:51.459Z,89.2158203125
2023-02-20T08:10:57.098Z,88.3916015625
2023-02-20T08:11:51.515Z,88.46484375
2023-02-20T08:12:51.530Z,88.53125
2023-02-20T08:13:51.840Z,88.771484375
2023-02-20T08:14:51.498Z,88.8828125
2023-02-20T08:15:56.355Z,88.9912109375
2023-02-20T08:16:51.552Z,88.943359375
2023-02-20T08:17:52.367Z,88.51171875
2023-02-20T08:18:51.589Z,88.697265625
2023-02-20T08:19:51.654Z,88.54296875
2023-02-20T08:20:51.830Z,88.400390625
2023-02-20T08:21:51.464Z,88.3212890625
2023-02-20T08:22:51.596Z,87.072265625
2023-02-20T08:23:51.632Z,86.931640625
2023-02-20T08:24:51.584Z,87.169921875
2023-02-20T08:25:51.818Z,87.263671875
2023-02-20T08:26:53.910Z,86.54296875
2023-02-20T08:27:51.527Z,86.0078125
2023-02-20T08:28:51.812Z,85.9248046875
2023-02-20T08:29:51.561Z,85.873046875
2023-02-20T08:30:51.807Z,85.7451171875
2023-02-20T08:31:51.685Z,85.5517578125
2023-02-20T08:32:51.705Z,85.31640625
2023-02-20T08:33:51.560Z,84.9775390625
2023-02-20T08:34:51.554Z,84.5810546875
2023-02-20T08:35:51.863Z,83.53125
2023-02-20T08:36:51.570Z,83.349609375
2023-02-20T08:37:53.817Z,83.7099609375
2023-02-20T08:38:51.533Z,82.8125
2023-02-20T08:39:51.566Z,82.62109375
2023-02-20T08:40:51.807Z,83.0439453125
2023-02-20T08:41:51.567Z,83.009765625
2023-02-20T08:42:51.619Z,83.0400390625
2023-02-20T08:43:51.793Z,82.681640625
2023-02-20T08:44:51.625Z,82.3505859375
2023-02-20T08:45:51.898Z,82.80078125
2023-02-20T08:46:51.522Z,82.5751953125
2023-02-20T08:47:51.457Z,82.552734375
2023-02-20T08:48:53.882Z,82.51953125
2023-02-20T08:49:51.483Z,81.5517578125
2023-02-20T08:50:51.806Z,81.4580078125
2023-02-20T08:51:51.556Z,81.2607421875
2023-02-20T08:52:51.467Z,80.8857421875
2023-02-20T08:53:51.560Z,80.689453125
2023-02-20T08:54:51.541Z,81.05859375
2023-02-20T08:55:51.809Z,81.2451171875
2023-02-20T08:56:51.487Z,81.09375
2023-02-20T08:57:51.562Z,80.2529296875
2023-02-20T08:58:51.821Z,79.490234375
2023-02-20T08:59:53.814Z,79.580078125
2023-02-20T09:00:51.898Z,79.330078125
2023-02-20T09:01:51.528Z,78.7119140625
2023-02-20T09:02:51.648Z,78.384765625
2023-02-20T09:03:51.547Z,78.0478515625
2023-02-20T09:04:51.533Z,77.1865234375
2023-02-20T09:05:51.825Z,76.994140625
2023-02-20T09:06:51.543Z,76.81640625
2023-02-20T09:07:51.436Z,76.9248046875
2023-02-20T09:08:51.584Z,76.3388671875
2023-02-20T09:09:51.525Z,76.130859375
2023-02-20T09:10:56.305Z,75.025390625
2023-02-20T09:11:51.457Z,74.564453125
2023-02-20T09:12:51.467Z,73.4970703125
2023-02-20T09:13:51.808Z,73.408203125
2023-02-20T09:14:51.534Z,73.2265625
2023-02-20T09:15:51.812Z,73.603515625
2023-02-20T09:16:51.592Z,73.125
2023-02-20T09:17:51.560Z,73.7158203125
2023-02-20T09:18:51.537Z,73.1767578125
2023-02-20T09:19:51.626Z,73.25390625
2023-02-20T09:20:51.806Z,73.5087890625
2023-02-20T09:21:53.907Z,73.173828125
2023-02-20T09:22:51.436Z,73.015625
2023-02-20T09:23:51.569Z,72.7822265625
2023-02-20T09:24:51.449Z,71.8212890625
2023-02-20T09:25:51.806Z,71.5537109375
2023-02-20T09:26:51.575Z,70.9306640625
2023-02-20T09:27:51.572Z,70.4716796875
2023-02-20T09:28:51.809Z,70.3388671875
2023-02-20T09:29:51.551Z,69.5693359375
2023-02-20T09:30:51.804Z,69.3544921875
2023-02-20T09:31:51.708Z,69.6318359375
2023-02-20T09:32:53.772Z,69.8388671875
2023-02-20T09:33:51.891Z,69.77734375
2023-02-20T09:34:51.487Z,68.9921875
2023-02-20T09:35:51.818Z,69.0908203125
2023-02-20T09:36:51.597Z,69.4736328125
2023-02-20T09:37:51.470Z,69.1015625
2023-02-20T09:38:51.468Z,69.037109375
2023-02-20T09:39:51.475Z,69.162109375
2023-02-20T09:40:51.816Z,69.27734375
2023-02-20T09:41:51.460Z,69.173828125
2023-02-20T09:42:51.575Z,69.220703125
2023-02-20T09:43:56.298Z,69.7275390625
2023-02-20T09:44:51.446Z,70.0517578125
2023-02-20T09:45:51.827Z,69.6884765625
2023-02-20T09:46:51.584Z,69.69921875
2023-02-20T09:47:51.599Z,69.5859375
2023-02-20T09:48:51.521Z,69.5986328125
2023-02-20T09:49:51.458Z,69.1767578125
2023-02-20T09:50:51.834Z,69.087890625
2023-02-20T09:51:51.554Z,68.87109375
2023-02-20T09:52:51.628Z,69.7353515625
2023-02-20T09:53:51.576Z,70.236328125
2023-02-20T09:54:53.833Z,70.9638671875
2023-02-20T09:55:51.825Z,70.9560546875
2023-02-20T09:56:51.577Z,71.849609375
2023-02-20T09:57:51.573Z,72.640625
2023-02-20T09:58:51.810Z,73.0302734375
2023-02-20T09:59:51.530Z,72.890625
2023-02-20T10:00:51.814Z,72.5419921875
2023-02-20T10:01:51.693Z,72.02734375
2023-02-20T10:02:51.625Z,71.41796875
2023-02-20T10:03:51.444Z,71.1748046875
2023-02-20T10:05:00.793Z,71.3583984375
2023-02-20T10:05:56.308Z,71.341796875
2023-02-20T10:06:51.560Z,71.5498046875
2023-02-20T10:07:51.544Z,71.501953125
2023-02-20T10:08:51.514Z,71.1298828125
2023-02-20T10:09:51.510Z,70.8173828125
2023-02-20T10:10:51.816Z,70.5009765625
2023-02-20T10:11:51.443Z,70.28515625
2023-02-20T10:12:51.570Z,69.9443359375
2023-02-20T10:13:51.806Z,68.64453125
2023-02-20T10:14:51.444Z,68.603515625
2023-02-20T10:15:51.815Z,67.9443359375
2023-02-20T10:16:53.831Z,67.5908203125
2023-02-20T10:17:51.548Z,67.7021484375
2023-02-20T10:18:51.529Z,67.654296875
2023-02-20T10:19:51.483Z,67.55078125
2023-02-20T10:20:51.810Z,67.7216796875
2023-02-20T10:21:51.546Z,68.1591796875
2023-02-20T10:22:51.460Z,68.0634765625
2023-02-20T10:24:03.755Z,68.5615234375
2023-02-20T10:24:51.448Z,68.36328125
2023-02-20T10:25:51.816Z,67.7431640625
2023-02-20T10:26:51.455Z,67.552734375
2023-02-20T10:27:53.778Z,66.826171875
2023-02-20T10:28:51.849Z,66.9755859375
2023-02-20T10:29:51.537Z,66.23046875
2023-02-20T10:30:51.845Z,65.6533203125
2023-02-20T10:31:51.617Z,64.794921875
2023-02-20T10:32:51.433Z,65.0830078125
2023-02-20T10:33:51.570Z,64.7109375
2023-02-20T10:34:51.578Z,65.1357421875
2023-02-20T10:35:51.808Z,66.6298828125
2023-02-20T10:36:51.560Z,66.2841796875
2023-02-20T10:37:51.440Z,65.6796875
2023-02-20T10:38:53.922Z,65.205078125
2023-02-20T10:39:51.450Z,65.19921875
2023-02-20T10:40:51.829Z,64.6171875
2023-02-20T10:41:51.484Z,64.56640625
2023-02-20T10:42:51.537Z,64.1767578125
2023-02-20T10:43:51.811Z,64.21484375
2023-02-20T10:44:52.745Z,63.896484375
2023-02-20T10:45:51.846Z,63.10546875
2023-02-20T10:46:51.509Z,62.671875
2023-02-20T10:47:51.564Z,62.572265625
2023-02-20T10:48:51.484Z,62.9716796875
2023-02-20T10:49:53.891Z,63.0673828125
2023-02-20T10:50:51.809Z,63.2587890625
2023-02-20T10:51:51.519Z,63.470703125
2023-02-20T10:52:51.517Z,63.5859375
2023-02-20T10:53:51.528Z,63.3056640625
2023-02-20T10:54:51.559Z,62.833984375
2023-02-20T10:55:51.812Z,62.4794921875
2023-02-20T10:56:51.538Z,62.8095703125
2023-02-20T10:57:51.525Z,62.744140625
2023-02-20T10:58:51.812Z,62.1357421875
2023-02-20T10:59:52.567Z,62.42578125
2023-02-20T11:00:56.265Z,62.5234375
2023-02-20T11:01:51.651Z,62.68359375
2023-02-20T11:02:51.498Z,62.8115234375
2023-02-20T11:03:51.551Z,62.8447265625
2023-02-20T11:04:51.574Z,62.7705078125